Time;durP1;ratioP1;P1;durP2;ratioP2;P2;SDS_P1;SDS_P2;PMS_P1;PMS_P2;Temp;Humidity;BMP_temperature;BMP_pressure;BME280_temperature;BME280_humidity;BME280_pressure;Samples;Min_cycle;Max_cycle;Signal;HPM_P1;HPM_P2
2023/02/18 00:00:40;;;;;;;18.70;6.30;;;;;;;12.13;100.00;98264.86;67713;1279;1016294;-62
2023/02/18 00:03:55;;;;;;;18.00;5.30;;;;;;;11.87;100.00;98268.39;67716;1279;1016423;-62
2023/02/18 00:06:58;;;;;;;13.90;4.30;;;;;;;11.59;100.00;98292.19;67769;1279;1016508;-62
2023/02/18 00:10:01;;;;;;;;;;;;;;;11.40;100.00;98300.89;67725;1279;1016464;-62
2023/02/18 00:13:03;;;;;;;16.70;5.20;;;;;;;11.36;100.00;98302.40;67727;1279;1016420;-61
2023/02/18 00:16:05;;;;;;;14.40;4.30;;;;;;;11.16;100.00;98328.55;67791;1279;1016533;-62
2023/02/18 00:19:09;;;;;;;13.30;3.60;;;;;;;10.92;100.00;98324.45;67826;1279;1016363;-61
2023/02/18 00:22:12;;;;;;;12.00;3.20;;;;;;;10.74;100.00;98305.02;67780;1279;1016359;-62
2023/02/18 00:25:15;;;;;;;12.90;3.50;;;;;;;10.63;100.00;98278.39;67725;1279;1016886;-62
2023/02/18 00:28:17;;;;;;;12.20;3.80;;;;;;;10.53;100.00;98276.79;67745;1279;1016416;-61
2023/02/18 00:31:20;;;;;;;11.80;3.40;;;;;;;10.44;100.00;98268.88;67791;1279;1016200;-61
2023/02/18 00:34:22;;;;;;;15.20;4.00;;;;;;;10.36;100.00;98280.75;67820;1279;1015940;-61
2023/02/18 00:37:25;;;;;;;10.00;3.60;;;;;;;10.36;100.00;98301.52;67743;1279;1020130;-61
2023/02/18 00:40:27;;;;;;;13.40;3.80;;;;;;;10.31;100.00;98304.27;67762;1279;1016507;-62
2023/02/18 00:43:29;;;;;;;15.90;4.20;;;;;;;10.26;100.00;98308.64;67760;1279;1017012;-62
2023/02/18 00:46:32;;;;;;;14.60;3.60;;;;;;;10.16;100.00;98307.72;67802;1279;1016718;-62
2023/02/18 00:49:35;;;;;;;13.40;3.60;;;;;;;10.20;100.00;98315.19;67773;1279;1016426;-62
2023/02/18 00:52:37;;;;;;;;;;;;;;;10.22;100.00;98318.20;67758;1279;1016459;-62
2023/02/18 00:55:39;;;;;;;11.10;3.20;;;;;;;10.26;100.00;98316.52;67788;1279;1016542;-62
2023/02/18 00:58:43;;;;;;;13.60;3.50;;;;;;;10.32;100.00;98322.64;67747;1279;1016425;-61
2023/02/18 01:01:45;;;;;;;;;;;;;;;10.37;100.00;98325.61;67771;1279;1016429;-62
2023/02/18 01:04:48;;;;;;;9.60;2.90;;;;;;;10.37;100.00;98335.20;67775;1279;1016400;-62
2023/02/18 01:07:50;;;;;;;;;;;;;;;10.47;100.00;98334.16;67766;1279;1016467;-62
2023/02/18 01:10:53;;;;;;;9.40;2.50;;;;;;;10.59;100.00;98331.11;67760;1279;1016949;-62
2023/02/18 01:13:56;;;;;;;9.40;2.80;;;;;;;10.58;100.00;98330.84;67786;1279;1017129;-62
2023/02/18 01:16:58;;;;;;;9.90;2.40;;;;;;;10.59;100.00;98319.02;67788;1279;1016516;-62
2023/02/18 01:20:01;;;;;;;11.10;2.20;;;;;;;10.53;100.00;98320.67;67729;1279;1016163;-62
2023/02/18 01:23:03;;;;;;;6.50;1.90;;;;;;;10.50;100.00;98320.84;67704;1279;1016345;-62
2023/02/18 01:26:06;;;;;;;;;;;;;;;10.40;100.00;98321.88;67756;1279;1016319;-62
2023/02/18 01:29:08;;;;;;;9.20;2.40;;;;;;;10.32;100.00;98317.20;67761;1279;1017082;-62
2023/02/18 01:32:11;;;;;;;10.60;3.20;;;;;;;10.19;100.00;98325.75;67716;1279;1016718;-62
2023/02/18 01:35:14;;;;;;;9.30;2.20;;;;;;;10.14;100.00;98325.55;67784;1279;1016096;-62
2023/02/18 01:38:16;;;;;;;13.70;2.10;;;;;;;10.05;100.00;98334.67;67820;1279;1019910;-62
2023/02/18 01:41:18;;;;;;;6.40;1.50;;;;;;;10.11;100.00;98345.27;67788;1279;1016432;-62
2023/02/18 01:44:21;;;;;;;5.90;1.40;;;;;;;10.12;100.00;98345.79;67733;1279;1016491;-62
2023/02/18 01:47:23;;;;;;;7.40;1.70;;;;;;;10.07;100.00;98347.48;67735;1279;1016218;-62
2023/02/18 01:50:26;;;;;;;9.60;2.10;;;;;;;9.85;100.00;98355.70;67781;1279;1016280;-61
2023/02/18 01:53:28;;;;;;;6.60;1.40;;;;;;;9.83;100.00;98354.44;67817;1279;1016514;-61
2023/02/18 01:56:31;;;;;;;7.10;1.70;;;;;;;9.77;100.00;98359.62;67730;1279;1016232;-61
2023/02/18 01:59:33;;;;;;;;;;;;;;;9.79;100.00;98365.02;67759;1279;1016540;-61
2023/02/18 02:02:36;;;;;;;8.30;1.10;;;;;;;9.80;100.00;98367.45;67763;1279;1016435;-62
2023/02/18 02:05:38;;;;;;;6.80;1.40;;;;;;;9.75;100.00;98370.55;67774;1279;1016195;-62
2023/02/18 02:08:41;;;;;;;4.30;0.80;;;;;;;9.71;100.00;98377.05;67715;1279;1017335;-60
2023/02/18 02:11:43;;;;;;;6.10;1.10;;;;;;;9.95;97.78;98380.73;67756;1279;1016264;-61
2023/02/18 02:14:46;;;;;;;4.30;0.90;;;;;;;9.89;94.46;98382.88;67780;1279;1016430;-62
2023/02/18 02:17:48;;;;;;;9.10;1.60;;;;;;;9.75;93.91;98400.60;67793;1279;1016514;-61
2023/02/18 02:20:51;;;;;;;4.40;1.00;;;;;;;9.67;92.61;98402.30;67745;1279;1016125;-61
2023/02/18 02:23:53;;;;;;;3.40;0.60;;;;;;;9.54;93.40;98407.63;67715;1279;1016031;-61
2023/02/18 02:26:56;;;;;;;2.40;0.70;;;;;;;9.34;93.37;98409.95;67793;1279;1016282;-62
2023/02/18 02:29:58;;;;;;;4.80;0.80;;;;;;;9.15;92.66;98424.05;67778;1279;1016391;-61
2023/02/18 02:33:01;;;;;;;6.70;0.70;;;;;;;9.04;91.62;98439.67;67745;1279;1016533;-61
2023/02/18 02:36:03;;;;;;;6.50;1.20;;;;;;;8.98;90.40;98437.98;67708;1279;1016410;-62
2023/02/18 02:39:06;;;;;;;2.70;0.60;;;;;;;8.97;90.03;98440.65;67794;1279;1017108;-62
2023/02/18 02:42:08;;;;;;;6.20;0.70;;;;;;;8.88;89.14;98442.55;67802;1279;1016223;-62
2023/02/18 02:45:11;;;;;;;;;;;;;;;8.93;88.94;98437.37;65257;1278;6371640;-62
2023/02/18 02:48:13;;;;;;;6.60;1.00;;;;;;;8.80;89.80;98437.63;67735;1278;1016465;-60
2023/02/18 02:51:15;;;;;;;8.10;1.20;;;;;;;8.76;89.85;98433.89;67768;1279;1016463;-61
2023/02/18 02:54:18;;;;;;;3.90;1.20;;;;;;;8.72;91.10;98437.08;67785;1279;1017886;-61
2023/02/18 02:57:21;;;;;;;;;;;;;;;8.63;90.95;98441.27;67785;1279;1019632;-61
2023/02/18 03:00:23;;;;;;;7.10;1.10;;;;;;;8.62;91.83;98435.38;67723;1279;1016361;-61
2023/02/18 03:03:26;;;;;;;4.60;1.00;;;;;;;8.62;92.62;98441.33;67769;1279;1015827;-61
2023/02/18 03:06:28;;;;;;;3.10;0.80;;;;;;;8.59;93.78;98436.45;67773;1279;1016414;-61
2023/02/18 03:09:30;;;;;;;3.60;1.00;;;;;;;8.52;93.47;98443.84;67801;1279;1016398;-61
2023/02/18 03:12:33;;;;;;;5.30;1.20;;;;;;;8.50;94.32;98441.70;67796;1279;1016580;-61
2023/02/18 03:15:36;;;;;;;8.10;1.20;;;;;;;8.52;94.53;98449.42;67703;1279;1016526;-61
2023/02/18 03:18:38;;;;;;;2.20;0.70;;;;;;;8.49;95.99;98443.47;67701;1279;1016485;-62
2023/02/18 03:21:41;;;;;;;;;;;;;;;8.50;95.73;98451.27;67778;1279;1016485;-62
2023/02/18 03:24:43;;;;;;;5.50;0.90;;;;;;;8.48;96.22;98449.63;67754;1279;1016665;-62
2023/02/18 03:27:46;;;;;;;6.00;1.00;;;;;;;8.40;95.60;98459.65;67766;1279;1016154;-62
2023/02/18 03:30:49;;;;;;;8.80;1.30;;;;;;;8.56;94.98;98452.66;67778;1279;1016609;-62
2023/02/18 03:33:51;;;;;;;11.20;1.40;;;;;;;8.59;94.69;98455.98;67751;1279;1016390;-61
2023/02/18 03:36:54;;;;;;;5.10;1.20;;;;;;;8.65;93.47;98463.46;67735;1256;1017978;-61
2023/02/18 03:39:56;;;;;;;7.30;1.40;;;;;;;8.61;94.00;98462.45;67756;1279;1016369;-62
2023/02/18 03:42:59;;;;;;;6.30;1.20;;;;;;;8.56;94.58;98469.57;67775;1264;1016286;-61
2023/02/18 03:46:01;;;;;;;7.10;1.60;;;;;;;8.51;94.12;98480.47;67710;1279;1017872;-62
2023/02/18 03:49:04;;;;;;;5.40;1.10;;;;;;;8.40;94.48;98485.27;67718;1279;1016343;-62
2023/02/18 03:52:06;;;;;;;7.10;1.20;;;;;;;8.40;93.17;98496.43;67810;1279;1016408;-61
2023/02/18 03:55:09;;;;;;;7.10;1.00;;;;;;;8.42;92.81;98503.27;67811;1279;1016926;-62
2023/02/18 03:58:12;;;;;;;7.00;1.30;;;;;;;8.44;92.08;98502.29;67761;1279;1016351;-62
2023/02/18 04:01:14;;;;;;;;;;;;;;;8.54;90.84;98500.55;67771;1279;1016410;-62
2023/02/18 04:04:16;;;;;;;9.00;1.00;;;;;;;8.61;89.95;98496.09;67777;1279;1016495;-61
2023/02/18 04:07:19;;;;;;;5.10;0.70;;;;;;;8.49;88.99;98510.89;67750;1279;1016454;-61
2023/02/18 04:10:21;;;;;;;4.00;0.70;;;;;;;8.40;88.87;98506.00;67732;1279;1017966;-62
2023/02/18 04:13:24;;;;;;;4.80;1.10;;;;;;;8.41;89.92;98503.66;67745;1279;1016469;-61
2023/02/18 04:16:27;;;;;;;;;;;;;;;8.40;88.64;98509.29;67772;1279;1018889;-61
2023/02/18 04:19:29;;;;;;;;;;;;;;;8.37;89.32;98505.30;67792;1279;1016311;-61
2023/02/18 04:22:32;;;;;;;;;;;;;;;8.36;88.48;98506.59;67738;1279;1018023;-61
2023/02/18 04:25:34;;;;;;;;;;;;;;;8.39;87.83;98507.65;67766;1279;1016487;-62
2023/02/18 04:28:37;;;;;;;;;;;;;;;8.46;87.99;98499.20;67783;1279;1016220;-61
2023/02/18 04:31:39;;;;;;;;;;;;;;;8.45;88.91;98498.04;67765;1279;1016466;-62
2023/02/18 04:34:42;;;;;;;;;;;;;;;8.41;89.50;98496.34;67745;1279;1016195;-62
2023/02/18 04:37:44;;;;;;;;;;;;;;;8.29;89.88;98498.77;67736;1279;1016484;-61
2023/02/18 04:40:47;;;;;;;;;;;;;;;8.20;88.49;98504.34;67781;1279;1018672;-61
2023/02/18 04:43:49;;;;;;;;;;;;;;;8.11;88.43;98510.07;67768;1279;1016952;-62
2023/02/18 04:46:52;;;;;;;;;;;;;;;8.17;88.88;98501.36;67748;1279;1016857;-62
2023/02/18 04:49:54;;;;;;;;;;;;;;;8.17;88.83;98500.54;67684;1279;1016946;-61
2023/02/18 04:52:57;;;;;;;;;;;;;;;8.08;89.33;98498.90;67731;1279;1016702;-61
2023/02/18 04:55:59;;;;;;;;;;;;;;;8.04;89.71;98499.28;67751;1279;1016397;-62
2023/02/18 04:59:02;;;;;;;;;;;;;;;7.98;89.20;98500.67;67699;1279;1016317;-62
2023/02/18 05:02:05;;;;;;;;;;;;;;;7.95;90.38;98504.52;67775;1279;1016350;-61
2023/02/18 05:05:08;;;;;;;;;;;;;;;7.93;90.10;98507.55;67803;1279;1016414;-61
2023/02/18 05:08:10;;;;;;;;;;;;;;;7.92;90.20;98505.92;67726;1279;1016287;-61
2023/02/18 05:11:13;;;;;;;;;;;;;;;7.94;90.43;98507.38;67808;1279;1016352;-61
2023/02/18 05:14:15;;;;;;;;;;;;;;;8.03;90.11;98509.97;67784;1279;1016263;-61
2023/02/18 05:17:18;;;;;;;;;;;;;;;7.93;89.39;98528.27;67713;1279;1016009;-62
2023/02/18 05:20:20;;;;;;;;;;;;;;;7.92;89.56;98534.61;67756;1279;1016459;-61
2023/02/18 05:23:24;;;;;;;;;;;;;;;7.95;88.93;98536.53;67759;1279;1016423;-61
2023/02/18 05:26:27;;;;;;;;;;;;;;;7.97;88.86;98533.11;67768;1279;1017115;-61
2023/02/18 05:29:29;;;;;;;;;;;;;;;7.86;88.92;98530.41;67816;1279;1016491;-61
2023/02/18 05:32:32;;;;;;;;;;;;;;;7.83;88.84;98540.65;67729;1279;1016430;-61
2023/02/18 05:35:34;;;;;;;;;;;;;;;7.86;88.04;98541.73;67740;1279;1016402;-61
2023/02/18 05:38:37;;;;;;;;;;;;;;;7.90;87.44;98548.31;67763;1279;1015963;-61
2023/02/18 05:41:39;;;;;;;;;;;;;;;7.95;85.64;98557.24;67761;1279;1016452;-62
2023/02/18 05:44:42;;;;;;;;;;;;;;;7.86;86.21;98565.39;67720;1279;1018768;-62
2023/02/18 05:47:45;;;;;;;;;;;;;;;7.73;85.80;98575.14;67770;1279;1016607;-61
2023/02/18 05:50:47;;;;;;;;;;;;;;;7.79;84.81;98571.18;67783;1279;1016282;-61
2023/02/18 05:53:50;;;;;;;;;;;;;;;7.73;84.25;98580.67;67704;1279;1016203;-61
2023/02/18 05:56:52;;;;;;;;;;;;;;;7.73;83.95;98572.52;67720;1279;1016327;-61
2023/02/18 05:59:55;;;;;;;;;;;;;;;7.80;84.03;98570.77;67775;1279;1016333;-61
2023/02/18 06:02:58;;;;;;;;;;;;;;;7.77;82.34;98568.32;67731;1279;1016233;-61
2023/02/18 06:06:00;;;;;;;;;;;;;;;7.91;82.93;98568.77;67717;1279;1016433;-61
2023/02/18 06:09:03;;;;;;;;;;;;;;;7.91;82.68;98562.67;67765;1279;1016547;-60
2023/02/18 06:12:06;;;;;;;;;;;;;;;7.85;82.89;98564.03;67766;1279;1016114;-62
2023/02/18 06:15:08;;;;;;;;;;;;;;;7.84;83.26;98553.46;67712;1279;1016494;-61
2023/02/18 06:18:10;;;;;;;;;;;;;;;7.95;84.23;98539.84;67710;1279;1016480;-61
2023/02/18 06:21:13;;;;;;;;;;;;;;;7.92;85.22;98538.62;67730;1279;1016455;-61
2023/02/18 06:24:15;;;;;;;;;;;;;;;7.88;86.04;98544.25;67780;1279;1016952;-61
2023/02/18 06:27:18;;;;;;;;;;;;;;;7.95;83.74;98555.52;67770;1279;1016291;-61
2023/02/18 06:30:21;;;;;;;;;;;;;;;8.09;83.99;98556.31;67738;1279;1016235;-61
2023/02/18 06:33:24;;;;;;;;;;;;;;;8.03;82.36;98577.20;67763;1279;1015808;-61
2023/02/18 06:36:26;;;;;;;;;;;;;;;8.09;82.66;98570.95;67784;1279;1016423;-61
2023/02/18 06:39:29;;;;;;;;;;;;;;;8.13;81.90;98572.33;67728;1279;1016414;-61
2023/02/18 06:42:31;;;;;;;;;;;;;;;8.14;82.47;98573.31;67776;1279;1016444;-60
2023/02/18 06:45:34;;;;;;;;;;;;;;;8.03;82.58;98572.66;67754;1279;1016404;-61
2023/02/18 06:48:37;;;;;;;;;;;;;;;8.07;84.10;98565.85;67738;1279;1015955;-62
2023/02/18 06:51:40;;;;;;;;;;;;;;;8.04;84.25;98573.52;67772;1279;1016467;-61
2023/02/18 06:54:42;;;;;;;;;;;;;;;8.00;83.21;98580.17;67740;1279;1018485;-61
2023/02/18 06:57:45;;;;;;;;;;;;;;;8.03;84.15;98588.55;67735;1279;1015870;-61
2023/02/18 07:00:47;;;;;;;;;;;;;;;8.25;83.91;98590.11;67704;1279;1016414;-61
2023/02/18 07:03:49;;;;;;;;;;;;;;;8.27;83.56;98588.04;67766;1279;1016332;-61
2023/02/18 07:06:52;;;;;;;;;;;;;;;8.37;84.31;98579.70;67829;1279;1016489;-61
2023/02/18 07:09:54;;;;;;;;;;;;;;;8.34;83.69;98588.95;67765;1279;1016468;-61
2023/02/18 07:12:57;;;;;;;;;;;;;;;8.38;84.61;98586.95;67697;1279;1016348;-61
2023/02/18 07:15:59;;;;;;;;;;;;;;;8.39;82.01;98596.98;67728;1279;1016498;-62
2023/02/18 07:19:02;;;;;;;;;;;;;;;8.40;82.66;98599.57;67734;1279;1016236;-62
2023/02/18 07:22:04;;;;;;;;;;;;;;;8.49;82.67;98602.21;67760;1279;1016457;-61
2023/02/18 07:25:06;;;;;;;;;;;;;;;8.37;82.18;98605.33;67789;1279;1016724;-62
2023/02/18 07:28:09;;;;;;;;;;;;;;;8.42;82.44;98598.95;67755;1279;1018201;-61
2023/02/18 07:31:11;;;;;;;;;;;;;;;8.35;82.76;98606.83;67731;1279;1016303;-61
2023/02/18 07:34:14;;;;;;;;;;;;;;;8.42;82.38;98598.77;67753;1279;1016494;-62
2023/02/18 07:37:16;;;;;;;;;;;;;;;8.46;81.92;98614.05;67724;1279;1016285;-61
2023/02/18 07:40:19;;;;;;;;;;;;;;;8.42;81.77;98598.77;67764;1279;1016310;-61
2023/02/18 07:43:22;;;;;;;;;;;;;;;8.49;80.72;98606.59;67712;1279;1016373;-62
2023/02/18 07:46:24;;;;;;;;;;;;;;;8.50;81.25;98604.97;67742;1279;1016404;-61
2023/02/18 07:49:26;;;;;;;;;;;;;;;8.57;81.36;98602.86;67750;1279;1016182;-62
2023/02/18 07:52:29;;;;;;;;;;;;;;;8.56;80.56;98609.52;67785;1279;1015907;-61
2023/02/18 07:58:48;;;;;;;;;;;;;;;8.65;79.58;98613.55;67707;1279;1018385;-62
2023/02/18 08:01:50;;;;;;;;;;;;;;;8.84;79.42;98617.20;67735;1279;1016459;-62
2023/02/18 08:04:52;;;;;;;;;;;;;;;8.91;78.42;98623.73;67696;1279;1018891;-62
2023/02/18 08:07:55;;;;;;;;;;;;;;;8.88;78.68;98617.45;67792;1279;1016506;-61
2023/02/18 08:10:57;;;;;;;;;;;;;;;8.90;78.54;98620.86;67782;1279;1016397;-61
2023/02/18 08:14:00;;;;;;;;;;;;;;;8.91;78.63;98616.27;67743;1279;1016392;-62
2023/02/18 08:17:03;;;;;;;;;;;;;;;8.98;79.21;98624.94;67775;1279;1016503;-61
2023/02/18 08:20:05;;;;;;;;;;;;;;;8.95;79.24;98628.92;67802;1279;1016922;-61
2023/02/18 08:23:08;;;;;;;;;;;;;;;8.93;78.83;98622.44;67716;1279;1018539;-62
2023/02/18 08:26:10;;;;;;;;;;;;;;;9.00;79.55;98613.65;67711;1279;1016405;-62
2023/02/18 08:29:13;;;;;;;;;;;;;;;9.14;79.50;98620.01;67767;1279;1016208;-61
2023/02/18 08:32:15;;;;;;;;;;;;;;;9.15;78.95;98618.58;67780;1279;1018695;-61
2023/02/18 08:35:18;;;;;;;;;;;;;;;9.16;79.96;98633.29;67771;1279;1016855;-62
2023/02/18 08:38:20;;;;;;;;;;;;;;;9.10;79.05;98639.38;67737;1279;1016282;-61
2023/02/18 08:41:23;;;;;;;;;;;;;;;9.14;78.17;98632.93;67720;1279;1016415;-62
2023/02/18 08:44:25;;;;;;;;;;;;;;;9.18;78.68;98643.80;67751;1279;1018488;-61
2023/02/18 08:47:28;;;;;;;;;;;;;;;9.19;78.94;98654.44;67746;1279;1016323;-61
2023/02/18 08:50:30;;;;;;;;;;;;;;;9.17;78.91;98644.59;67712;1279;1016390;-61
2023/02/18 08:53:32;;;;;;;;;;;;;;;9.07;78.56;98646.90;67729;1279;1016460;-61
2023/02/18 08:56:35;;;;;;;;;;;;;;;9.16;79.17;98630.71;67772;1279;1016734;-61
2023/02/18 08:59:38;;;;;;;;;;;;;;;9.24;80.37;98624.84;67780;1279;1016320;-61
2023/02/18 09:02:40;;;;;;;;;;;;;;;9.31;79.50;98629.27;67756;1279;1016393;-61
2023/02/18 09:05:43;;;;;;;;;;;;;;;9.20;79.03;98646.33;67745;1279;1016278;-61
2023/02/18 09:08:45;;;;;;;;;;;;;;;9.26;79.14;98636.41;67763;1279;1016549;-61
2023/02/18 09:11:48;;;;;;;;;;;;;;;9.26;78.43;98626.64;67776;1279;1016426;-61
2023/02/18 09:14:50;;;;;;;;;;;;;;;9.17;78.51;98658.02;67721;1279;1016805;-61
2023/02/18 09:17:52;;;;;;;;;;;;;;;9.15;79.03;98645.91;67695;1279;1016494;-61
2023/02/18 09:20:55;;;;;;;;;;;;;;;9.12;78.86;98648.17;67808;1279;1016327;-61
2023/02/18 09:23:58;;;;;;;;;;;;;;;9.10;78.66;98623.20;67807;1279;1016137;-61
2023/02/18 09:27:00;;;;;;;;;;;;;;;9.03;78.98;98637.54;67697;1279;1016560;-61
2023/02/18 09:30:02;;;;;;;;;;;;;;;9.05;80.02;98623.98;67731;1279;1016368;-61
2023/02/18 09:33:05;;;;;;;;;;;;;;;9.14;80.27;98612.70;67802;1279;1016488;-61
2023/02/18 09:39:31;;;;;;;;;;;;;;;9.07;78.20;98626.99;67785;1279;1018860;-62
2023/02/18 09:42:34;;;;;;;;;;;;;;;9.11;78.38;98619.45;67846;1279;1016426;-62
2023/02/18 09:45:36;;;;;;;;;;;;;;;9.14;80.45;98603.40;67750;1279;1016191;-61
2023/02/18 09:48:39;;;;;;;;;;;;;;;9.26;79.11;98608.99;67753;1279;1018034;-61
2023/02/18 09:51:41;;;;;;;;;;;;;;;9.32;78.64;98609.33;67726;1279;1016462;-60
2023/02/18 09:54:44;;;;;;;;;;;;;;;9.24;79.69;98605.27;67775;1279;1016695;-61
2023/02/18 09:57:47;;;;;;;;;;;;;;;9.17;79.03;98600.27;67771;1279;1016462;-61
2023/02/18 10:00:49;;;;;;;;;;;;;;;9.24;80.15;98594.27;67749;1279;1016423;-61
2023/02/18 10:03:52;;;;;;;;;;;;;;;9.28;77.34;98601.52;67768;1279;1016128;-60
2023/02/18 10:06:55;;;;;;;;;;;;;;;9.40;77.76;98595.77;67747;1279;1016201;-62
2023/02/18 10:09:58;;;;;;;;;;;;;;;9.47;77.06;98596.75;67705;1279;1016527;-61
2023/02/18 10:13:01;;;;;;;;;;;;;;;9.50;76.46;98599.52;67801;1279;1016136;-62
2023/02/18 10:16:03;;;;;;;;;;;;;;;9.51;75.54;98599.45;67751;1279;1016471;-61
2023/02/18 10:19:05;;;;;;;;;;;;;;;9.54;74.82;98604.16;67747;1279;1016496;-61
2023/02/18 10:22:08;;;;;;;;;;;;;;;9.55;73.89;98596.48;67759;1279;1016276;-62
2023/02/18 10:25:11;;;;;;;;;;;;;;;9.55;73.69;98599.44;67779;1279;1016398;-61
2023/02/18 10:28:13;;;;;;;;;;;;;;;9.65;73.31;98593.90;67694;1279;1016446;-60
2023/02/18 10:31:16;;;;;;;;;;;;;;;9.76;72.74;98572.48;67728;1279;1016431;-62
2023/02/18 10:34:18;;;;;;;;;;;;;;;9.82;71.04;98577.17;67779;1279;1016479;-62
2023/02/18 10:37:21;;;;;;;;;;;;;;;9.87;71.59;98568.33;67789;1279;1018182;-62
2023/02/18 10:40:23;;;;;;;;;;;;;;;9.95;71.87;98550.86;67745;1279;1016466;-61
2023/02/18 10:43:26;;;;;;;;;;;;;;;10.01;71.24;98550.13;67724;1279;1016373;-62
2023/02/18 10:46:29;;;;;;;;;;;;;;;10.12;70.11;98546.98;67767;1279;1016871;-62
2023/02/18 10:49:31;;;;;;;;;;;;;;;10.25;68.68;98536.79;67760;1279;1016540;-61
2023/02/18 10:52:34;;;;;;;;;;;;;;;10.34;68.36;98549.48;67751;1279;1018589;-62
2023/02/18 10:55:36;;;;;;;;;;;;;;;10.37;67.97;98537.23;67782;1279;1016391;-61
2023/02/18 10:58:39;;;;;;;;;;;;;;;10.59;65.46;98534.73;67795;1279;1016194;-62
2023/02/18 11:01:41;;;;;;;;;;;;;;;10.67;63.55;98540.87;67800;1279;1016185;-61
2023/02/18 11:04:44;;;;;;;;;;;;;;;10.61;63.15;98532.90;67776;1279;1016489;-61
2023/02/18 11:07:46;;;;;;;;;;;;;;;10.62;64.28;98524.43;67733;1279;1016118;-62
2023/02/18 11:10:49;;;;;;;;;;;;;;;10.78;63.52;98520.09;67765;1279;1016955;-61
2023/02/18 11:13:52;;;;;;;;;;;;;;;10.77;62.32;98504.01;67798;1279;1016261;-62
2023/02/18 11:16:55;;;;;;;;;;;;;;;10.70;62.96;98509.19;67725;1279;1018092;-62
2023/02/18 11:19:57;;;;;;;;;;;;;;;10.80;61.87;98509.09;67797;1279;1016290;-61
2023/02/18 11:23:00;;;;;;;;;;;;;;;10.74;59.79;98513.14;67759;1279;1016108;-61
2023/02/18 11:26:03;;;;;;;;;;;;;;;10.98;61.01;98485.29;67740;1279;1016515;-62
2023/02/18 11:29:05;;;;;;;;;;;;;;;11.02;59.19;98494.70;67789;1279;1016115;-61
2023/02/18 11:32:07;;;;;;;;;;;;;;;10.92;59.14;98497.23;67800;1279;1018746;-62
2023/02/18 11:35:10;;;;;;;;;;;;;;;10.87;59.50;98498.79;67741;1279;1016507;-61
2023/02/18 11:38:12;;;;;;;;;;;;;;;10.85;59.15;98493.17;67753;1279;1016519;-62
2023/02/18 11:41:15;;;;;;;;;;;;;;;10.86;59.50;98495.19;67776;1279;1018035;-62
2023/02/18 11:44:18;;;;;;;;;;;;;;;10.80;59.25;98491.42;67758;1279;1016413;-62
2023/02/18 11:47:20;;;;;;;;;;;;;;;10.77;59.62;98484.08;67743;1279;1016523;-61
2023/02/18 11:50:23;;;;;;;;;;;;;;;10.74;58.99;98486.77;67736;1279;1015908;-62
2023/02/18 11:53:25;;;;;;;;;;;;;;;10.58;58.41;98490.80;67764;1279;1016478;-62
2023/02/18 11:56:28;;;;;;;;;;;;;;;10.61;58.10;98468.19;67753;1279;1016041;-62
2023/02/18 11:59:30;;;;;;;;;;;;;;;10.64;59.82;98461.71;67703;1279;1016739;-62
2023/02/18 12:02:33;;;;;;;;;;;;;;;10.82;59.29;98445.45;67750;1279;1016473;-62
2023/02/18 12:05:36;;;;;;;;;;;;;;;10.80;59.26;98455.42;67779;1279;1016032;-62
2023/02/18 12:08:38;;;;;;;;;;;;;;;10.83;59.22;98453.08;67827;1279;1016551;-61
2023/02/18 12:11:41;;;;;;;;;;;;;;;10.96;59.78;98441.02;67744;1279;1016314;-62
2023/02/18 12:14:44;;;;;;;;;;;;;;;10.96;60.36;98435.94;67752;1279;1016462;-61
2023/02/18 12:17:46;;;;;;;;;;;;;;;10.97;61.35;98432.25;67806;1279;1016476;-62
2023/02/18 12:20:48;;;;;;;;;;;;;;;10.82;61.59;98427.80;67807;1279;1016470;-61
2023/02/18 12:23:51;;;;;;;;;;;;;;;10.67;63.27;98435.30;67745;1279;1016336;-61
2023/02/18 12:26:54;;;;;;;;;;;;;;;10.59;64.16;98428.98;67731;1279;1016501;-61
2023/02/18 12:29:57;;;;;;;;;;;;;;;10.52;65.43;98417.20;67800;1279;1016404;-61
2023/02/18 12:33:04;;;;;;;;;;;;;;;10.55;66.61;98407.36;67733;1279;1016292;-62
2023/02/18 12:36:06;;;;;;;;;;;;;;;10.52;71.04;98400.59;67744;1279;1018516;-61
2023/02/18 12:39:09;;;;;;;;;;;;;;;10.50;74.87;98418.60;67804;1279;1016266;-61
2023/02/18 12:42:12;;;;;;;;;;;;;;;10.42;76.06;98387.98;67713;1279;1016544;-61
2023/02/18 12:45:15;;;;;;;;;;;;;;;10.15;78.67;98395.17;67782;1279;1016343;-62
2023/02/18 12:48:17;;;;;;;;;;;;;;;9.96;80.66;98420.17;67776;1279;1016430;-62
2023/02/18 12:51:21;;;;;;;;;;;;;;;9.77;82.98;98410.88;67744;1279;1016061;-61
2023/02/18 12:54:24;;;;;;;;;;;;;;;9.57;84.27;98413.93;67776;1279;1016235;-62
2023/02/18 12:57:26;;;;;;;;;;;;;;;9.47;85.98;98421.88;67771;1279;1016506;-62
2023/02/18 13:00:29;;;;;;;;;;;;;;;9.47;86.48;98399.21;67717;1279;1016288;-62
2023/02/18 13:03:32;;;;;;;;;;;;;;;9.44;87.54;98406.39;67756;1279;1016186;-62
2023/02/18 13:06:34;;;;;;;;;;;;;;;9.45;88.02;98405.80;67759;1279;1018915;-61
2023/02/18 13:09:37;;;;;;;;;;;;;;;9.47;88.77;98398.66;67804;1279;1016473;-61
2023/02/18 13:12:39;;;;;;;;;;;;;;;9.39;90.32;98398.97;67772;1279;1018957;-61
2023/02/18 13:15:42;;;;;;;;;;;;;;;9.32;90.39;98389.83;67766;1279;1016404;-62
2023/02/18 13:18:45;;;;;;;;;;;;;;;9.30;91.04;98387.17;67755;1279;1016548;-62
2023/02/18 13:21:48;;;;;;;;;;;;;;;9.23;91.99;98378.38;67774;1279;1018399;-61
2023/02/18 13:24:50;;;;;;;;;;;;;;;9.31;91.61;98377.34;67750;1279;1016279;-61
2023/02/18 13:27:53;;;;;;;;;;;;;;;9.25;92.07;98385.58;67790;1279;1016419;-62
2023/02/18 13:30:55;;;;;;;;;;;;;;;9.15;92.53;98368.89;67775;1279;1016276;-61
2023/02/18 13:33:58;;;;;;;;;;;;;;;9.06;92.93;98383.41;67736;1279;1016487;-61
2023/02/18 13:37:00;;;;;;;;;;;;;;;9.02;93.82;98370.05;67754;1279;1016497;-61
2023/02/18 13:40:03;;;;;;;;;;;;;;;9.03;94.87;98362.67;67791;1279;1016141;-62
2023/02/18 13:43:05;;;;;;;;;;;;;;;8.89;96.66;98359.36;67771;1279;1016968;-61
2023/02/18 13:46:08;;;;;;;;;;;;;;;8.85;97.76;98359.73;67746;1279;1016491;-61
2023/02/18 13:49:11;;;;;;;;;;;;;;;8.77;99.51;98355.38;67716;1279;1016920;-62
2023/02/18 13:52:14;;;;;;;;;;;;;;;8.61;100.00;98351.29;67752;1279;1016395;-62
2023/02/18 13:55:17;;;;;;;;;;;;;;;8.51;100.00;98342.80;67750;1279;1016359;-62
2023/02/18 13:58:19;;;;;;;;;;;;;;;8.41;100.00;98324.54;67812;1279;1016514;-62
2023/02/18 14:01:22;;;;;;;;;;;;;;;8.45;100.00;98317.36;67773;1279;1018087;-62
2023/02/18 14:04:24;;;;;;;;;;;;;;;8.51;100.00;98309.89;67731;1279;1016874;-63
2023/02/18 14:07:27;;;;;;;;;;;;;;;8.56;100.00;98297.42;67708;1279;1016054;-62
2023/02/18 14:10:29;;;;;;;;;;;;;;;8.59;100.00;98286.56;67744;1279;1018826;-62
2023/02/18 14:13:32;;;;;;;;;;;;;;;8.66;100.00;98271.48;67706;1279;1016654;-62
2023/02/18 14:16:34;;;;;;;;;;;;;;;8.78;100.00;98259.80;67704;1280;1016427;-62
2023/02/18 14:19:37;;;;;;;;;;;;;;;8.75;100.00;98252.98;67744;1279;1016427;-61
2023/02/18 14:22:39;;;;;;;;;;;;;;;8.77;100.00;98249.55;67787;1279;1017082;-62
2023/02/18 14:25:41;;;;;;;;;;;;;;;8.81;100.00;98240.04;67776;1279;1016406;-62
2023/02/18 14:28:44;;;;;;;;;;;;;;;8.82;100.00;98233.73;67755;1279;1016484;-61
2023/02/18 14:31:47;;;;;;;;;;;;;;;8.79;100.00;98220.45;67780;1279;1015964;-62
2023/02/18 14:34:49;;;;;;;;;;;;;;;8.95;100.00;98212.86;67781;1279;1016433;-62
2023/02/18 14:37:52;;;;;;;;;;;;;;;9.04;100.00;98204.98;67743;1279;1015792;-61
2023/02/18 14:40:54;;;;;;;;;;;;;;;9.00;100.00;98197.89;67744;1279;1018499;-62
2023/02/18 14:44:05;;;;;;;;;;;;;;;9.07;100.00;98196.77;65170;1278;5368500;-62
2023/02/18 14:47:08;;;;;;;;;;;;;;;8.98;100.00;98187.70;67805;1279;1016482;-61
2023/02/18 14:50:10;;;;;;;;;;;;;;;8.91;100.00;98180.67;67685;1279;1016272;-62
2023/02/18 14:53:17;;;;;;;;;;;;;;;8.65;100.00;98165.23;67755;1279;1016285;-62
2023/02/18 14:56:19;;;;;;;;;;;;;;;8.68;100.00;98154.97;67798;1280;1016298;-61
2023/02/18 14:59:22;;;;;;;;;;;;;;;8.65;100.00;98152.36;67754;1279;1016447;-62
2023/02/18 15:02:26;;;;;;;;;;;;;;;8.77;100.00;98140.45;67736;1279;1016336;-62
2023/02/18 15:05:29;;;;;;;;;;;;;;;8.91;100.00;98130.31;67731;1279;1016441;-62
2023/02/18 15:08:31;;;;;;;;;;;;;;;8.97;100.00;98123.11;67774;1279;1017240;-62
2023/02/18 15:11:34;;;;;;;;;;;;;;;8.99;100.00;98116.83;67788;1279;1016987;-62
2023/02/18 15:14:36;;;;;;;;;;;;;;;8.87;100.00;98106.29;67742;1279;1016511;-61